Airfield :
LOGIN :

Register | Disclaimer

   EN    FR    IT 

 










Legend :    VFR   Marginal VFR   IFR   Intensive IFR   Very Intensive IFR
Visi :
Ceiling :
>= 8 km
>= 3000ft
5 to 8 km
1000 to 3000 ft
1500m to 5 km
500 to 1000 ft
800 to 1500m
200 to 500 ft
< 800m
< 200 ft
Symbols :   Thunderstorms  Fog  Heavy snow  Heavy precipitations  Wind > 20 kt
SIGMETs :     Misc.  Thunderstorms  Icing  Turbulence  Mountain Waves  Volcanic Ashes






- Airport Elevation : 776 ft
- IATA code : RMS


ETAR - Ramstein Air Base

CURRENT METAR :
  • 141856Z AUTO 00000KT 9999 CLR 02/02 A2955 RMK AO2 SLP021 T00160016 $

EXPIRED METARs :
  • 141756Z AUTO 11005KT 9999 M 02/02 A2955 RMK AO2 SLP021 T00210020 10081 20014 55004
  • 141656Z AUTO 00000KT 9999 CLR 04/02 A2957 RMK AO2 SLP026 T00350020 $

TAF TAF ETAR
Valid from the 14 at 18:00 until the 16 at 00:00 UTC


141800Z 1418/1524 VRB06KT 9999 SCT060 QNH2955INS
BECMG 1420/1421 05009KT 9999 SCT015 SCT100 510005 QNH2937INS
TEMPO 1422/1504 05010G20KT
BECMG 1509/1510 VRB06KT 9000 -RA SCT015 BKN090 620903 QNH2947INS
BECMG 1511/1512 22012G20KT 9000 -RA SCT015 BKN090 620903 510005 QNH2951INS
BECMG 1514/1515 22008KT 9999 NSW SCT015 SCT150 QNH2956INS TX06/1513Z TN01/1405Z



MET'MAP, your aeronautical weather chart ! - Copyright ORBIFLY December 2007 - Disclaimer

ORBIFLY MET'MAP TEAM :

Programming & Development : Alexandra Zaïnal
Concept & Development : Baudouin d'Aumeries
Co-Development & Prog : Marc-Olivier Méhu
Technical & hardware support : Manuel Goepfert

Contact : metmap@orbifly.com




SOURCES & CREDITS :

   NOAA